sensor_id;sensor_type;location;lat;lon;timestamp;pressure;altitude;pressure_sealevel;temperature;humidity
51147;BME280;37207;53.060;18.726;2023-04-25T00:01:23;99466.46;;;12.62;79.31
51147;BME280;37207;53.060;18.726;2023-04-25T00:03:50;99462.96;;;12.60;79.28
51147;BME280;37207;53.060;18.726;2023-04-25T00:06:16;99466.02;;;12.61;79.28
51147;BME280;37207;53.060;18.726;2023-04-25T00:08:44;99466.14;;;12.60;79.39
51147;BME280;37207;53.060;18.726;2023-04-25T00:11:11;99463.64;;;12.59;79.33
51147;BME280;37207;53.060;18.726;2023-04-25T00:13:37;99465.10;;;12.58;79.27
51147;BME280;37207;53.060;18.726;2023-04-25T00:16:04;99466.12;;;12.58;79.29
51147;BME280;37207;53.060;18.726;2023-04-25T00:18:30;99469.40;;;12.57;79.36
51147;BME280;37207;53.060;18.726;2023-04-25T00:20:59;99466.93;;;12.57;79.33
51147;BME280;37207;53.060;18.726;2023-04-25T00:23:26;99464.88;;;12.56;79.25
51147;BME280;37207;53.060;18.726;2023-04-25T00:25:53;99462.16;;;12.55;79.29
51147;BME280;37207;53.060;18.726;2023-04-25T00:28:19;99462.10;;;12.56;79.26
51147;BME280;37207;53.060;18.726;2023-04-25T00:30:46;99461.09;;;12.57;79.23
51147;BME280;37207;53.060;18.726;2023-04-25T00:33:13;99460.05;;;12.55;79.05
51147;BME280;37207;53.060;18.726;2023-04-25T00:35:39;99459.78;;;12.53;79.05
51147;BME280;37207;53.060;18.726;2023-04-25T00:38:06;99453.86;;;12.52;79.10
51147;BME280;37207;53.060;18.726;2023-04-25T00:40:32;99455.36;;;12.53;79.22
51147;BME280;37207;53.060;18.726;2023-04-25T00:42:59;99450.07;;;12.52;79.14
51147;BME280;37207;53.060;18.726;2023-04-25T00:45:29;99449.02;;;12.52;79.13
51147;BME280;37207;53.060;18.726;2023-04-25T00:47:56;99450.45;;;12.51;79.20
51147;BME280;37207;53.060;18.726;2023-04-25T00:50:24;99447.63;;;12.50;79.27
51147;BME280;37207;53.060;18.726;2023-04-25T00:52:51;99444.80;;;12.47;79.34
51147;BME280;37207;53.060;18.726;2023-04-25T00:55:19;99444.50;;;12.46;79.44
51147;BME280;37207;53.060;18.726;2023-04-25T00:57:46;99445.73;;;12.43;79.58
51147;BME280;37207;53.060;18.726;2023-04-25T01:00:13;99442.89;;;12.41;79.65
51147;BME280;37207;53.060;18.726;2023-04-25T01:02:41;99441.39;;;12.38;79.87
51147;BME280;37207;53.060;18.726;2023-04-25T01:05:08;99440.94;;;12.33;79.90
51147;BME280;37207;53.060;18.726;2023-04-25T01:07:35;99443.31;;;12.26;80.01
51147;BME280;37207;53.060;18.726;2023-04-25T01:10:02;99440.09;;;12.22;80.20
51147;BME280;37207;53.060;18.726;2023-04-25T01:12:29;99444.98;;;12.22;80.39
51147;BME280;37207;53.060;18.726;2023-04-25T01:14:56;99443.39;;;12.21;80.62
51147;BME280;37207;53.060;18.726;2023-04-25T01:17:23;99446.30;;;12.17;80.67
51147;BME280;37207;53.060;18.726;2023-04-25T01:19:50;99448.48;;;12.11;80.82
51147;BME280;37207;53.060;18.726;2023-04-25T01:22:17;99447.03;;;12.08;80.89
51147;BME280;37207;53.060;18.726;2023-04-25T01:24:44;99444.45;;;12.06;81.05
51147;BME280;37207;53.060;18.726;2023-04-25T01:27:11;99442.80;;;12.05;81.25
51147;BME280;37207;53.060;18.726;2023-04-25T01:29:38;99439.94;;;12.04;81.28
51147;BME280;37207;53.060;18.726;2023-04-25T01:32:06;99439.52;;;12.02;81.39
51147;BME280;37207;53.060;18.726;2023-04-25T01:34:33;99441.09;;;11.96;81.23
51147;BME280;37207;53.060;18.726;2023-04-25T01:37:00;99442.75;;;11.94;81.45
51147;BME280;37207;53.060;18.726;2023-04-25T01:39:30;99443.55;;;11.91;81.53
51147;BME280;37207;53.060;18.726;2023-04-25T01:41:58;99445.23;;;11.83;81.41
51147;BME280;37207;53.060;18.726;2023-04-25T01:44:25;99450.48;;;11.77;81.48
51147;BME280;37207;53.060;18.726;2023-04-25T01:46:52;99448.66;;;11.72;81.54
51147;BME280;37207;53.060;18.726;2023-04-25T01:49:19;99454.03;;;11.69;81.66
51147;BME280;37207;53.060;18.726;2023-04-25T01:51:45;99456.05;;;11.63;81.54
51147;BME280;37207;53.060;18.726;2023-04-25T01:54:13;99461.05;;;11.57;81.63
51147;BME280;37207;53.060;18.726;2023-04-25T01:56:40;99460.24;;;11.47;81.62
51147;BME280;37207;53.060;18.726;2023-04-25T01:59:08;99465.41;;;11.41;81.69
51147;BME280;37207;53.060;18.726;2023-04-25T02:02:00;99466.72;;;11.35;81.79
51147;BME280;37207;53.060;18.726;2023-04-25T02:04:31;99463.38;;;11.28;81.77
51147;BME280;37207;53.060;18.726;2023-04-25T02:06:57;99464.66;;;11.20;81.82
51147;BME280;37207;53.060;18.726;2023-04-25T02:09:29;99470.83;;;11.09;81.95
51147;BME280;37207;53.060;18.726;2023-04-25T02:11:57;99469.83;;;11.03;81.92
51147;BME280;37207;53.060;18.726;2023-04-25T02:14:34;99468.67;;;10.98;81.95
51147;BME280;37207;53.060;18.726;2023-04-25T02:17:21;99470.13;;;10.92;81.97
51147;BME280;37207;53.060;18.726;2023-04-25T02:19:48;99467.48;;;10.84;81.84
51147;BME280;37207;53.060;18.726;2023-04-25T02:22:14;99472.13;;;10.79;82.02
51147;BME280;37207;53.060;18.726;2023-04-25T02:24:41;99473.23;;;10.73;82.08
51147;BME280;37207;53.060;18.726;2023-04-25T02:27:07;99471.73;;;10.67;82.06
51147;BME280;37207;53.060;18.726;2023-04-25T02:29:35;99474.11;;;10.62;82.12
51147;BME280;37207;53.060;18.726;2023-04-25T02:32:02;99480.06;;;10.58;82.37
51147;BME280;37207;53.060;18.726;2023-04-25T02:34:29;99477.59;;;10.56;82.45
51147;BME280;37207;53.060;18.726;2023-04-25T02:36:56;99476.11;;;10.56;82.62
51147;BME280;37207;53.060;18.726;2023-04-25T02:39:22;99481.27;;;10.58;82.72
51147;BME280;37207;53.060;18.726;2023-04-25T02:41:52;99484.53;;;10.58;82.83
51147;BME280;37207;53.060;18.726;2023-04-25T02:44:18;99484.86;;;10.56;82.80
51147;BME280;37207;53.060;18.726;2023-04-25T02:46:45;99484.73;;;10.54;82.90
51147;BME280;37207;53.060;18.726;2023-04-25T02:49:11;99484.02;;;10.54;82.95
51147;BME280;37207;53.060;18.726;2023-04-25T02:51:38;99480.22;;;10.53;82.95
51147;BME280;37207;53.060;18.726;2023-04-25T02:54:04;99481.88;;;10.54;83.00
51147;BME280;37207;53.060;18.726;2023-04-25T02:56:35;99485.79;;;10.54;83.12
51147;BME280;37207;53.060;18.726;2023-04-25T02:59:01;99488.15;;;10.53;82.91
51147;BME280;37207;53.060;18.726;2023-04-25T03:01:29;99488.62;;;10.50;82.79
51147;BME280;37207;53.060;18.726;2023-04-25T03:03:55;99493.39;;;10.47;82.73
51147;BME280;37207;53.060;18.726;2023-04-25T03:06:22;99496.25;;;10.45;82.74
51147;BME280;37207;53.060;18.726;2023-04-25T03:08:48;99495.52;;;10.44;82.72
51147;BME280;37207;53.060;18.726;2023-04-25T03:11:15;99495.16;;;10.43;82.80
51147;BME280;37207;53.060;18.726;2023-04-25T03:13:42;99492.87;;;10.42;82.78
51147;BME280;37207;53.060;18.726;2023-04-25T03:16:08;99492.02;;;10.40;82.73
51147;BME280;37207;53.060;18.726;2023-04-25T03:18:35;99492.30;;;10.39;82.74
51147;BME280;37207;53.060;18.726;2023-04-25T03:21:02;99489.66;;;10.35;82.73
51147;BME280;37207;53.060;18.726;2023-04-25T03:23:31;99486.36;;;10.32;82.88
51147;BME280;37207;53.060;18.726;2023-04-25T03:25:57;99487.87;;;10.31;82.80
51147;BME280;37207;53.060;18.726;2023-04-25T03:28:24;99488.19;;;10.28;82.64
51147;BME280;37207;53.060;18.726;2023-04-25T03:30:51;99488.39;;;10.25;82.67
51147;BME280;37207;53.060;18.726;2023-04-25T03:33:18;99482.23;;;10.20;82.61
51147;BME280;37207;53.060;18.726;2023-04-25T03:35:45;99483.56;;;10.17;82.65
51147;BME280;37207;53.060;18.726;2023-04-25T03:38:11;99482.56;;;10.13;82.57
51147;BME280;37207;53.060;18.726;2023-04-25T03:40:39;99487.14;;;10.10;82.63
51147;BME280;37207;53.060;18.726;2023-04-25T03:43:16;99487.79;;;10.09;82.71
51147;BME280;37207;53.060;18.726;2023-04-25T03:45:47;99491.95;;;10.09;82.62
51147;BME280;37207;53.060;18.726;2023-04-25T03:48:14;99498.59;;;10.09;82.73
51147;BME280;37207;53.060;18.726;2023-04-25T03:50:41;99496.69;;;10.06;82.55
51147;BME280;37207;53.060;18.726;2023-04-25T03:53:08;99501.54;;;10.02;82.42
51147;BME280;37207;53.060;18.726;2023-04-25T03:55:55;99505.55;;;9.98;82.39
51147;BME280;37207;53.060;18.726;2023-04-25T03:58:21;99509.83;;;9.95;82.34
51147;BME280;37207;53.060;18.726;2023-04-25T04:00:50;99516.02;;;9.89;82.24
51147;BME280;37207;53.060;18.726;2023-04-25T04:03:16;99515.09;;;9.86;82.28
51147;BME280;37207;53.060;18.726;2023-04-25T04:05:43;99514.59;;;9.85;82.43
51147;BME280;37207;53.060;18.726;2023-04-25T04:08:09;99523.17;;;9.85;82.32
51147;BME280;37207;53.060;18.726;2023-04-25T04:10:38;99529.04;;;9.82;81.98
51147;BME280;37207;53.060;18.726;2023-04-25T04:13:04;99533.81;;;9.79;82.05
51147;BME280;37207;53.060;18.726;2023-04-25T04:15:32;99536.36;;;9.77;82.00
51147;BME280;37207;53.060;18.726;2023-04-25T04:17:59;99534.62;;;9.72;81.80
51147;BME280;37207;53.060;18.726;2023-04-25T04:20:29;99540.73;;;9.70;82.01
51147;BME280;37207;53.060;18.726;2023-04-25T04:22:57;99543.84;;;9.73;82.06
51147;BME280;37207;53.060;18.726;2023-04-25T04:25:24;99544.59;;;9.74;82.00
51147;BME280;37207;53.060;18.726;2023-04-25T04:28:18;99543.54;;;9.75;81.86
51147;BME280;37207;53.060;18.726;2023-04-25T04:31:14;99545.14;;;9.72;81.62
51147;BME280;37207;53.060;18.726;2023-04-25T04:33:42;99546.85;;;9.70;81.48
51147;BME280;37207;53.060;18.726;2023-04-25T04:36:09;99548.98;;;9.67;81.40
51147;BME280;37207;53.060;18.726;2023-04-25T04:38:36;99548.94;;;9.67;81.46
51147;BME280;37207;53.060;18.726;2023-04-25T04:41:04;99550.95;;;9.65;81.25
51147;BME280;37207;53.060;18.726;2023-04-25T04:43:38;99553.95;;;9.61;80.97
51147;BME280;37207;53.060;18.726;2023-04-25T04:46:21;99553.05;;;9.56;80.91
51147;BME280;37207;53.060;18.726;2023-04-25T04:49:18;99549.19;;;9.54;80.95
51147;BME280;37207;53.060;18.726;2023-04-25T04:52:04;99548.61;;;9.52;80.89
51147;BME280;37207;53.060;18.726;2023-04-25T04:54:51;99551.36;;;9.51;80.95
51147;BME280;37207;53.060;18.726;2023-04-25T04:57:35;99553.40;;;9.55;81.12
51147;BME280;37207;53.060;18.726;2023-04-25T05:00:15;99556.41;;;9.62;81.09
51147;BME280;37207;53.060;18.726;2023-04-25T05:03:00;99554.95;;;9.67;80.98
51147;BME280;37207;53.060;18.726;2023-04-25T05:05:34;99556.66;;;9.68;80.76
51147;BME280;37207;53.060;18.726;2023-04-25T05:08:29;99559.06;;;9.69;80.58
51147;BME280;37207;53.060;18.726;2023-04-25T05:11:14;99556.99;;;9.70;80.36
51147;BME280;37207;53.060;18.726;2023-04-25T05:14:04;99558.75;;;9.68;79.88
51147;BME280;37207;53.060;18.726;2023-04-25T05:17:04;99566.34;;;9.62;79.85
51147;BME280;37207;53.060;18.726;2023-04-25T05:19:39;99569.11;;;9.52;79.45
51147;BME280;37207;53.060;18.726;2023-04-25T05:22:25;99570.66;;;9.44;79.80
51147;BME280;37207;53.060;18.726;2023-04-25T05:25:10;99576.17;;;9.39;80.02
51147;BME280;37207;53.060;18.726;2023-04-25T05:27:59;99577.58;;;9.37;80.13
51147;BME280;37207;53.060;18.726;2023-04-25T05:30:45;99583.23;;;9.35;79.95
51147;BME280;37207;53.060;18.726;2023-04-25T05:33:17;99581.75;;;9.31;79.71
51147;BME280;37207;53.060;18.726;2023-04-25T05:35:44;99582.49;;;9.27;79.77
51147;BME280;37207;53.060;18.726;2023-04-25T05:38:11;99582.99;;;9.24;79.67
51147;BME280;37207;53.060;18.726;2023-04-25T05:41:01;99583.93;;;9.19;79.41
51147;BME280;37207;53.060;18.726;2023-04-25T05:43:46;99588.21;;;9.17;79.87
51147;BME280;37207;53.060;18.726;2023-04-25T05:46:23;99592.70;;;9.19;79.89
51147;BME280;37207;53.060;18.726;2023-04-25T05:49:22;99589.65;;;9.22;79.73
51147;BME280;37207;53.060;18.726;2023-04-25T05:52:07;99596.81;;;9.24;79.42
51147;BME280;37207;53.060;18.726;2023-04-25T05:54:47;99598.18;;;9.30;79.58
51147;BME280;37207;53.060;18.726;2023-04-25T05:57:25;99594.17;;;9.39;79.66
51147;BME280;37207;53.060;18.726;2023-04-25T05:59:53;99595.98;;;9.47;79.20
51147;BME280;37207;53.060;18.726;2023-04-25T06:02:20;99597.36;;;9.55;79.09
51147;BME280;37207;53.060;18.726;2023-04-25T06:04:49;99594.65;;;9.66;78.59
51147;BME280;37207;53.060;18.726;2023-04-25T06:07:17;99590.36;;;9.78;78.76
51147;BME280;37207;53.060;18.726;2023-04-25T06:09:44;99593.30;;;9.97;79.10
51147;BME280;37207;53.060;18.726;2023-04-25T06:12:11;99593.19;;;10.18;78.61
51147;BME280;37207;53.060;18.726;2023-04-25T06:14:37;99590.71;;;10.40;77.78
51147;BME280;37207;53.060;18.726;2023-04-25T06:17:04;99593.86;;;10.55;76.60
51147;BME280;37207;53.060;18.726;2023-04-25T06:19:35;99596.48;;;10.56;75.95
51147;BME280;37207;53.060;18.726;2023-04-25T06:22:02;99599.30;;;10.54;75.52
51147;BME280;37207;53.060;18.726;2023-04-25T06:24:30;99603.33;;;10.50;74.87
51147;BME280;37207;53.060;18.726;2023-04-25T06:26:56;99599.14;;;10.54;74.96
51147;BME280;37207;53.060;18.726;2023-04-25T06:29:23;99598.95;;;10.62;75.05
51147;BME280;37207;53.060;18.726;2023-04-25T06:31:50;99600.33;;;10.75;75.04
51147;BME280;37207;53.060;18.726;2023-04-25T06:34:16;99595.77;;;10.90;74.63
51147;BME280;37207;53.060;18.726;2023-04-25T06:36:43;99602.16;;;10.97;73.17
51147;BME280;37207;53.060;18.726;2023-04-25T06:39:12;99600.57;;;11.03;72.63
51147;BME280;37207;53.060;18.726;2023-04-25T06:41:38;99604.75;;;11.01;71.58
51147;BME280;37207;53.060;18.726;2023-04-25T06:44:07;99600.25;;;10.95;71.83
51147;BME280;37207;53.060;18.726;2023-04-25T06:46:39;99597.86;;;10.86;72.28
51147;BME280;37207;53.060;18.726;2023-04-25T06:49:05;99604.23;;;10.78;72.61
51147;BME280;37207;53.060;18.726;2023-04-25T06:51:32;99604.42;;;10.73;72.49
51147;BME280;37207;53.060;18.726;2023-04-25T06:53:59;99602.98;;;10.69;72.02
51147;BME280;37207;53.060;18.726;2023-04-25T06:56:31;99606.38;;;10.61;71.51
51147;BME280;37207;53.060;18.726;2023-04-25T06:59:03;99611.65;;;10.51;70.58
51147;BME280;37207;53.060;18.726;2023-04-25T07:01:32;99610.17;;;10.43;70.76
51147;BME280;37207;53.060;18.726;2023-04-25T07:04:00;99608.95;;;10.38;70.79
51147;BME280;37207;53.060;18.726;2023-04-25T07:06:28;99610.73;;;10.40;70.69
51147;BME280;37207;53.060;18.726;2023-04-25T07:08:55;99607.93;;;10.51;70.89
51147;BME280;37207;53.060;18.726;2023-04-25T07:11:23;99608.79;;;10.72;71.03
51147;BME280;37207;53.060;18.726;2023-04-25T07:13:50;99607.59;;;10.96;70.38
51147;BME280;37207;53.060;18.726;2023-04-25T07:16:16;99607.39;;;11.18;70.99
51147;BME280;37207;53.060;18.726;2023-04-25T07:18:43;99605.04;;;11.37;70.14
51147;BME280;37207;53.060;18.726;2023-04-25T07:21:10;99602.61;;;11.63;69.85
51147;BME280;37207;53.060;18.726;2023-04-25T07:23:37;99606.80;;;11.86;69.05
51147;BME280;37207;53.060;18.726;2023-04-25T07:26:09;99610.10;;;12.03;67.62
51147;BME280;37207;53.060;18.726;2023-04-25T07:28:38;99613.23;;;12.07;66.33
51147;BME280;37207;53.060;18.726;2023-04-25T07:31:04;99608.77;;;12.19;66.93
51147;BME280;37207;53.060;18.726;2023-04-25T07:33:33;99610.98;;;12.41;66.15
51147;BME280;37207;53.060;18.726;2023-04-25T07:35:59;99609.34;;;12.62;66.51
51147;BME280;37207;53.060;18.726;2023-04-25T07:38:26;99610.68;;;12.87;66.07
51147;BME280;37207;53.060;18.726;2023-04-25T07:40:53;99617.45;;;13.18;65.96
51147;BME280;37207;53.060;18.726;2023-04-25T07:43:19;99625.34;;;13.32;61.97
51147;BME280;37207;53.060;18.726;2023-04-25T07:45:52;99621.38;;;13.30;62.67
51147;BME280;37207;53.060;18.726;2023-04-25T07:48:19;99619.95;;;13.34;63.21
51147;BME280;37207;53.060;18.726;2023-04-25T07:50:46;99622.93;;;13.39;62.68
51147;BME280;37207;53.060;18.726;2023-04-25T07:53:13;99628.73;;;13.33;62.22
51147;BME280;37207;53.060;18.726;2023-04-25T07:55:45;99628.55;;;13.35;62.71
51147;BME280;37207;53.060;18.726;2023-04-25T07:58:15;99626.84;;;13.38;62.63
51147;BME280;37207;53.060;18.726;2023-04-25T08:00:44;99627.89;;;13.61;62.91
51147;BME280;37207;53.060;18.726;2023-04-25T08:03:19;99635.01;;;13.82;60.86
51147;BME280;37207;53.060;18.726;2023-04-25T08:05:48;99638.83;;;13.82;60.88
51147;BME280;37207;53.060;18.726;2023-04-25T08:08:15;99637.48;;;13.78;61.03
51147;BME280;37207;53.060;18.726;2023-04-25T08:10:41;99640.74;;;13.80;60.81
51147;BME280;37207;53.060;18.726;2023-04-25T08:13:08;99639.98;;;13.83;60.73
51147;BME280;37207;53.060;18.726;2023-04-25T08:15:35;99637.91;;;13.94;61.25
51147;BME280;37207;53.060;18.726;2023-04-25T08:18:02;99637.36;;;14.00;61.46
51147;BME280;37207;53.060;18.726;2023-04-25T08:20:30;99644.64;;;13.87;60.69
51147;BME280;37207;53.060;18.726;2023-04-25T08:22:57;99645.73;;;13.77;60.59
51147;BME280;37207;53.060;18.726;2023-04-25T08:25:29;99643.09;;;13.78;60.62
51147;BME280;37207;53.060;18.726;2023-04-25T08:27:55;99645.10;;;13.81;61.00
51147;BME280;37207;53.060;18.726;2023-04-25T08:30:23;99641.48;;;13.78;60.46
51147;BME280;37207;53.060;18.726;2023-04-25T08:32:51;99649.49;;;13.78;59.11
51147;BME280;37207;53.060;18.726;2023-04-25T08:35:40;99647.45;;;13.94;59.45
51147;BME280;37207;53.060;18.726;2023-04-25T08:38:07;99647.92;;;14.01;58.56
51147;BME280;37207;53.060;18.726;2023-04-25T08:40:37;99648.59;;;13.96;58.93
51147;BME280;37207;53.060;18.726;2023-04-25T08:43:09;99639.92;;;14.08;58.82
51147;BME280;37207;53.060;18.726;2023-04-25T08:45:41;99638.88;;;14.17;59.17
51147;BME280;37207;53.060;18.726;2023-04-25T08:48:11;99634.99;;;14.34;59.48
51147;BME280;37207;53.060;18.726;2023-04-25T08:50:48;99638.03;;;14.46;58.77
51147;BME280;37207;53.060;18.726;2023-04-25T08:53:21;99638.71;;;14.30;56.87
51147;BME280;37207;53.060;18.726;2023-04-25T08:55:49;99637.23;;;14.07;57.54
51147;BME280;37207;53.060;18.726;2023-04-25T08:58:18;99640.98;;;13.99;58.30
51147;BME280;37207;53.060;18.726;2023-04-25T09:00:46;99642.92;;;14.04;58.06
51147;BME280;37207;53.060;18.726;2023-04-25T09:03:13;99637.79;;;14.12;57.84
51147;BME280;37207;53.060;18.726;2023-04-25T09:05:41;99643.98;;;14.40;58.93
51147;BME280;37207;53.060;18.726;2023-04-25T09:08:08;99645.02;;;14.71;58.57
51147;BME280;37207;53.060;18.726;2023-04-25T09:10:36;99645.87;;;14.87;57.05
51147;BME280;37207;53.060;18.726;2023-04-25T09:13:08;99645.57;;;14.79;57.02
51147;BME280;37207;53.060;18.726;2023-04-25T09:16:15;99647.08;;;14.50;56.47
51147;BME280;37207;53.060;18.726;2023-04-25T09:19:03;99650.44;;;14.19;56.99
51147;BME280;37207;53.060;18.726;2023-04-25T09:21:32;99658.11;;;13.90;57.23
51147;BME280;37207;53.060;18.726;2023-04-25T09:24:01;99658.34;;;13.61;57.14
51147;BME280;37207;53.060;18.726;2023-04-25T09:26:28;99658.89;;;13.36;57.41
51147;BME280;37207;53.060;18.726;2023-04-25T09:29:12;99662.61;;;13.16;58.30
51147;BME280;37207;53.060;18.726;2023-04-25T09:31:40;99665.57;;;13.05;58.83
51147;BME280;37207;53.060;18.726;2023-04-25T09:34:08;99665.31;;;12.98;58.86
51147;BME280;37207;53.060;18.726;2023-04-25T09:36:42;99668.29;;;12.90;59.20
51147;BME280;37207;53.060;18.726;2023-04-25T09:39:49;99667.08;;;12.86;59.46
51147;BME280;37207;53.060;18.726;2023-04-25T09:42:17;99666.04;;;12.85;59.58
51147;BME280;37207;53.060;18.726;2023-04-25T09:44:45;99667.11;;;12.82;59.82
51147;BME280;37207;53.060;18.726;2023-04-25T09:47:13;99671.43;;;12.77;59.43
51147;BME280;37207;53.060;18.726;2023-04-25T09:49:42;99674.34;;;12.74;59.96
51147;BME280;37207;53.060;18.726;2023-04-25T09:52:18;99675.66;;;12.78;60.38
51147;BME280;37207;53.060;18.726;2023-04-25T09:54:57;99670.09;;;12.86;60.13
51147;BME280;37207;53.060;18.726;2023-04-25T09:57:32;99678.45;;;12.96;59.97
51147;BME280;37207;53.060;18.726;2023-04-25T10:00:00;99681.89;;;13.02;60.05
51147;BME280;37207;53.060;18.726;2023-04-25T10:02:42;99679.36;;;13.07;59.60
51147;BME280;37207;53.060;18.726;2023-04-25T10:05:22;99682.78;;;13.16;59.88
51147;BME280;37207;53.060;18.726;2023-04-25T10:07:51;99684.23;;;13.28;59.85
51147;BME280;37207;53.060;18.726;2023-04-25T10:10:18;99683.57;;;13.35;58.37
51147;BME280;37207;53.060;18.726;2023-04-25T10:12:46;99687.42;;;13.34;57.80
51147;BME280;37207;53.060;18.726;2023-04-25T10:15:13;99687.91;;;13.32;58.26
51147;BME280;37207;53.060;18.726;2023-04-25T10:17:41;99682.73;;;13.40;58.76
51147;BME280;37207;53.060;18.726;2023-04-25T10:20:08;99686.55;;;13.46;58.18
51147;BME280;37207;53.060;18.726;2023-04-25T10:22:42;99685.02;;;13.50;58.34
51147;BME280;37207;53.060;18.726;2023-04-25T10:25:11;99685.40;;;13.57;58.70
51147;BME280;37207;53.060;18.726;2023-04-25T10:27:39;99690.48;;;13.62;58.86
51147;BME280;37207;53.060;18.726;2023-04-25T10:30:12;99689.61;;;13.66;58.26
51147;BME280;37207;53.060;18.726;2023-04-25T10:32:42;99695.42;;;13.62;57.71
51147;BME280;37207;53.060;18.726;2023-04-25T10:35:13;99694.13;;;13.51;56.38
51147;BME280;37207;53.060;18.726;2023-04-25T10:38:13;99700.52;;;13.35;56.55
51147;BME280;37207;53.060;18.726;2023-04-25T10:40:40;99702.92;;;13.19;57.30
51147;BME280;37207;53.060;18.726;2023-04-25T10:46:27;99699.73;;;13.10;58.42
51147;BME280;37207;53.060;18.726;2023-04-25T10:48:58;99699.12;;;13.07;58.46
51147;BME280;37207;53.060;18.726;2023-04-25T10:51:29;99703.38;;;13.05;58.31
51147;BME280;37207;53.060;18.726;2023-04-25T10:54:00;99700.86;;;12.98;58.22
51147;BME280;37207;53.060;18.726;2023-04-25T10:56:35;99703.63;;;12.94;58.44
51147;BME280;37207;53.060;18.726;2023-04-25T10:59:12;99707.20;;;12.95;58.46
51147;BME280;37207;53.060;18.726;2023-04-25T11:01:44;99703.38;;;12.93;58.38
51147;BME280;37207;53.060;18.726;2023-04-25T11:04:30;99705.19;;;12.89;58.50
51147;BME280;37207;53.060;18.726;2023-04-25T11:09:39;99706.30;;;12.94;58.54
51147;BME280;37207;53.060;18.726;2023-04-25T11:12:09;99706.57;;;12.97;58.55
51147;BME280;37207;53.060;18.726;2023-04-25T11:14:37;99707.83;;;13.03;58.04
51147;BME280;37207;53.060;18.726;2023-04-25T11:17:04;99710.27;;;13.07;57.87
51147;BME280;37207;53.060;18.726;2023-04-25T11:19:32;99709.94;;;13.08;57.29
51147;BME280;37207;53.060;18.726;2023-04-25T11:22:01;99710.16;;;13.10;56.81
51147;BME280;37207;53.060;18.726;2023-04-25T11:24:31;99709.95;;;13.11;56.50
51147;BME280;37207;53.060;18.726;2023-04-25T11:26:58;99713.09;;;13.07;56.26
51147;BME280;37207;53.060;18.726;2023-04-25T11:29:28;99714.55;;;13.02;56.29
51147;BME280;37207;53.060;18.726;2023-04-25T11:31:55;99712.20;;;12.98;56.60
51147;BME280;37207;53.060;18.726;2023-04-25T11:34:24;99712.55;;;12.98;56.74
51147;BME280;37207;53.060;18.726;2023-04-25T11:36:52;99712.14;;;13.01;57.57
51147;BME280;37207;53.060;18.726;2023-04-25T11:39:19;99711.23;;;13.06;57.85
51147;BME280;37207;53.060;18.726;2023-04-25T11:41:47;99713.05;;;13.14;57.69
51147;BME280;37207;53.060;18.726;2023-04-25T11:44:17;99716.31;;;13.19;57.48
51147;BME280;37207;53.060;18.726;2023-04-25T11:46:44;99718.88;;;13.20;57.42
51147;BME280;37207;53.060;18.726;2023-04-25T11:49:12;99719.28;;;13.24;57.95
51147;BME280;37207;53.060;18.726;2023-04-25T11:51:43;99713.61;;;13.30;57.98
51147;BME280;37207;53.060;18.726;2023-04-25T11:54:11;99709.42;;;13.36;58.24
51147;BME280;37207;53.060;18.726;2023-04-25T11:56:42;99711.00;;;13.47;58.20
51147;BME280;37207;53.060;18.726;2023-04-25T11:59:09;99713.48;;;13.54;57.71
51147;BME280;37207;53.060;18.726;2023-04-25T12:01:38;99713.15;;;13.61;57.88
51147;BME280;37207;53.060;18.726;2023-04-25T12:04:13;99715.42;;;13.70;57.37
51147;BME280;37207;53.060;18.726;2023-04-25T12:06:41;99711.73;;;13.74;56.79
51147;BME280;37207;53.060;18.726;2023-04-25T12:09:09;99711.16;;;13.94;57.06
51147;BME280;37207;53.060;18.726;2023-04-25T12:11:44;99711.01;;;14.01;56.55
51147;BME280;37207;53.060;18.726;2023-04-25T12:14:12;99711.71;;;13.97;56.53
51147;BME280;37207;53.060;18.726;2023-04-25T12:16:45;99707.73;;;13.83;56.27
51147;BME280;37207;53.060;18.726;2023-04-25T12:19:16;99712.88;;;13.59;56.00
51147;BME280;37207;53.060;18.726;2023-04-25T12:21:43;99710.26;;;13.35;56.26
51147;BME280;37207;53.060;18.726;2023-04-25T12:24:25;99710.32;;;13.14;56.08
51147;BME280;37207;53.060;18.726;2023-04-25T12:26:52;99720.22;;;12.96;56.57
51147;BME280;37207;53.060;18.726;2023-04-25T12:29:24;99715.27;;;12.84;57.09
51147;BME280;37207;53.060;18.726;2023-04-25T12:31:52;99717.71;;;12.75;57.46
51147;BME280;37207;53.060;18.726;2023-04-25T12:34:19;99713.94;;;12.70;57.78
51147;BME280;37207;53.060;18.726;2023-04-25T12:36:47;99715.51;;;12.69;58.14
51147;BME280;37207;53.060;18.726;2023-04-25T12:39:18;99717.87;;;12.69;58.01
51147;BME280;37207;53.060;18.726;2023-04-25T12:41:53;99718.75;;;12.67;58.17
51147;BME280;37207;53.060;18.726;2023-04-25T12:44:20;99719.68;;;12.69;58.24
51147;BME280;37207;53.060;18.726;2023-04-25T12:46:48;99718.70;;;12.73;58.44
51147;BME280;37207;53.060;18.726;2023-04-25T12:49:14;99712.51;;;12.77;58.46
51147;BME280;37207;53.060;18.726;2023-04-25T12:51:41;99713.80;;;12.79;58.43
51147;BME280;37207;53.060;18.726;2023-04-25T12:54:08;99711.73;;;12.81;58.55
51147;BME280;37207;53.060;18.726;2023-04-25T12:56:35;99711.53;;;12.85;58.61
51147;BME280;37207;53.060;18.726;2023-04-25T12:59:02;99713.64;;;12.92;58.78
51147;BME280;37207;53.060;18.726;2023-04-25T13:01:29;99713.05;;;12.98;58.78
51147;BME280;37207;53.060;18.726;2023-04-25T13:03:56;99715.60;;;13.02;58.72
51147;BME280;37207;53.060;18.726;2023-04-25T13:06:23;99709.86;;;13.06;58.68
51147;BME280;37207;53.060;18.726;2023-04-25T13:08:49;99706.61;;;13.13;58.55
51147;BME280;37207;53.060;18.726;2023-04-25T13:11:16;99704.82;;;13.23;58.84
51147;BME280;37207;53.060;18.726;2023-04-25T13:13:44;99710.73;;;13.37;58.54
51147;BME280;37207;53.060;18.726;2023-04-25T13:16:10;99706.36;;;13.42;57.81